createdAt,value
2018-07-22T00:00:31.783Z,0.00
2018-07-22T00:01:31.773Z,0.00
2018-07-22T00:02:31.730Z,0.00
2018-07-22T00:03:31.721Z,0.00
2018-07-22T00:04:31.705Z,0.00
2018-07-22T00:05:31.701Z,0.00
2018-07-22T00:06:31.645Z,0.00
2018-07-22T00:07:31.628Z,0.00
2018-07-22T00:08:31.609Z,0.00
2018-07-22T00:09:31.580Z,0.00
2018-07-22T00:10:31.558Z,0.00
2018-07-22T00:11:31.530Z,0.00
2018-07-22T00:12:31.507Z,0.00
2018-07-22T00:13:31.485Z,0.00
2018-07-22T00:14:31.475Z,0.00
2018-07-22T00:15:31.466Z,0.00
2018-07-22T00:16:31.416Z,0.00
2018-07-22T00:17:31.393Z,0.00
2018-07-22T00:18:31.380Z,0.00
2018-07-22T00:19:31.344Z,0.00
2018-07-22T00:20:31.326Z,0.00
2018-07-22T00:21:31.327Z,0.00
2018-07-22T00:22:31.287Z,0.00
2018-07-22T00:23:31.253Z,0.00
2018-07-22T00:24:31.239Z,0.00
2018-07-22T00:25:31.223Z,0.00
2018-07-22T00:26:31.203Z,0.00
2018-07-22T00:27:31.165Z,0.00
2018-07-22T00:28:31.150Z,0.00
2018-07-22T00:29:31.119Z,0.00
2018-07-22T00:30:31.091Z,0.00
2018-07-22T00:31:31.083Z,0.00
2018-07-22T00:32:31.049Z,0.00
2018-07-22T00:33:31.031Z,0.00
2018-07-22T00:34:31.011Z,0.00
2018-07-22T00:35:31.005Z,0.00
2018-07-22T00:36:30.949Z,0.00
2018-07-22T00:37:30.939Z,0.00
2018-07-22T00:38:30.936Z,0.00
2018-07-22T00:39:30.915Z,0.00
2018-07-22T00:40:30.890Z,0.00
2018-07-22T00:41:30.854Z,0.00
2018-07-22T00:42:30.851Z,0.00
2018-07-22T00:43:30.790Z,0.00
2018-07-22T00:44:30.771Z,0.00
2018-07-22T00:45:30.774Z,0.00
2018-07-22T00:46:30.727Z,0.00
2018-07-22T00:47:30.710Z,0.00
2018-07-22T00:48:30.697Z,0.00
2018-07-22T00:49:30.657Z,0.00
2018-07-22T00:50:30.633Z,0.00
2018-07-22T00:51:30.620Z,0.00
2018-07-22T00:52:30.612Z,0.00
2018-07-22T00:53:30.562Z,0.00
2018-07-22T00:54:30.572Z,0.00
2018-07-22T00:55:30.537Z,0.00
2018-07-22T00:56:30.498Z,0.00
2018-07-22T00:57:30.472Z,0.00
2018-07-22T00:58:30.459Z,0.00
2018-07-22T00:59:30.437Z,0.00
2018-07-22T01:00:30.409Z,0.00
2018-07-22T01:01:30.384Z,0.00
2018-07-22T01:02:30.381Z,0.00
2018-07-22T01:03:30.329Z,0.00
2018-07-22T01:04:30.309Z,0.00
2018-07-22T01:05:30.305Z,0.00
2018-07-22T01:06:30.260Z,0.00
2018-07-22T01:07:30.251Z,0.00
2018-07-22T01:08:30.232Z,0.00
2018-07-22T01:09:30.211Z,0.00
2018-07-22T01:10:30.175Z,0.00
2018-07-22T01:11:30.154Z,0.00
2018-07-22T01:12:30.148Z,0.00
2018-07-22T01:13:30.131Z,0.00
2018-07-22T01:14:30.098Z,0.00
2018-07-22T01:15:30.062Z,0.00
2018-07-22T01:16:30.034Z,0.00
2018-07-22T01:17:30.014Z,0.00
2018-07-22T01:18:29.999Z,0.00
2018-07-22T01:19:29.995Z,0.00
2018-07-22T01:20:29.951Z,0.00
2018-07-22T01:21:29.923Z,0.00
2018-07-22T01:22:29.918Z,0.00
2018-07-22T01:23:29.888Z,0.00
2018-07-22T01:24:29.857Z,0.00
2018-07-22T01:25:29.852Z,0.00
2018-07-22T01:26:29.812Z,0.00
2018-07-22T01:27:29.791Z,0.00
2018-07-22T01:28:29.760Z,0.00
2018-07-22T01:29:29.747Z,0.00
2018-07-22T01:30:29.714Z,0.00
2018-07-22T01:31:29.689Z,0.00
2018-07-22T01:32:29.670Z,0.00
2018-07-22T01:33:29.648Z,0.00
2018-07-22T01:34:29.621Z,0.00
2018-07-22T01:35:29.634Z,0.00
2018-07-22T01:36:29.578Z,0.00
2018-07-22T01:37:29.554Z,0.00
2018-07-22T01:38:29.535Z,0.00
2018-07-22T01:39:29.516Z,0.00
2018-07-22T01:40:29.480Z,0.00
2018-07-22T01:41:29.467Z,0.00
2018-07-22T01:42:29.432Z,0.00
2018-07-22T01:43:29.432Z,0.00
2018-07-22T01:44:29.392Z,0.00
2018-07-22T01:45:29.363Z,0.00
2018-07-22T01:46:29.354Z,0.00
2018-07-22T01:47:29.313Z,0.00
2018-07-22T01:48:29.296Z,0.00
2018-07-22T01:49:29.281Z,0.00
2018-07-22T01:50:29.252Z,0.00
2018-07-22T01:51:29.234Z,0.00
2018-07-22T01:52:29.196Z,0.00
2018-07-22T01:53:29.177Z,0.00
2018-07-22T01:54:29.195Z,0.00
2018-07-22T01:55:29.151Z,0.00
2018-07-22T01:56:29.108Z,0.00
2018-07-22T01:57:29.076Z,0.00
2018-07-22T01:58:29.066Z,0.00
2018-07-22T01:59:29.054Z,0.00
2018-07-22T02:00:29.021Z,0.00
2018-07-22T02:01:29.007Z,0.00
2018-07-22T02:02:28.969Z,0.00
2018-07-22T02:03:28.940Z,0.00
2018-07-22T02:04:29.019Z,0.00
2018-07-22T02:05:28.897Z,0.00
2018-07-22T02:06:28.881Z,0.00
2018-07-22T02:07:28.840Z,0.00
2018-07-22T02:08:28.843Z,0.00
2018-07-22T02:09:28.798Z,0.00
2018-07-22T02:10:28.784Z,0.00
2018-07-22T02:11:28.754Z,0.00
2018-07-22T02:12:28.738Z,0.00
2018-07-22T02:13:28.720Z,0.00
2018-07-22T02:14:28.686Z,0.00
2018-07-22T02:15:28.658Z,0.00
2018-07-22T02:16:28.649Z,0.00
2018-07-22T02:17:28.606Z,0.00
2018-07-22T02:18:28.599Z,0.00
2018-07-22T02:19:28.560Z,0.00
2018-07-22T02:20:28.549Z,0.00
2018-07-22T02:21:28.522Z,0.00
2018-07-22T02:22:28.502Z,0.00
2018-07-22T02:23:28.482Z,0.00
2018-07-22T02:24:28.487Z,0.00
2018-07-22T02:25:28.433Z,0.00
2018-07-22T02:26:28.410Z,0.00
2018-07-22T02:27:28.390Z,0.00
2018-07-22T02:28:28.351Z,0.00
2018-07-22T02:29:28.348Z,0.00
2018-07-22T02:30:28.340Z,0.00
2018-07-22T02:31:28.290Z,0.00
2018-07-22T02:32:28.270Z,0.00
2018-07-22T02:33:28.251Z,0.00
2018-07-22T02:34:28.219Z,0.00
2018-07-22T02:35:28.193Z,0.00
2018-07-22T02:36:28.179Z,0.00
2018-07-22T02:37:28.164Z,0.00
2018-07-22T02:38:28.121Z,0.00
2018-07-22T02:39:28.099Z,0.00
2018-07-22T02:40:28.091Z,0.00
2018-07-22T02:41:28.047Z,0.00
2018-07-22T02:42:28.033Z,0.00
2018-07-22T02:43:28.027Z,0.00
2018-07-22T02:44:28.010Z,0.00
2018-07-22T02:45:27.977Z,0.00
2018-07-22T02:46:27.940Z,0.00
2018-07-22T02:47:27.937Z,0.00
2018-07-22T02:48:27.896Z,0.00
2018-07-22T02:49:27.878Z,0.00
2018-07-22T02:50:27.863Z,0.00
2018-07-22T02:51:27.908Z,0.00
2018-07-22T02:52:27.805Z,0.00
2018-07-22T02:53:27.824Z,0.00
2018-07-22T02:54:27.744Z,0.00
2018-07-22T02:55:27.751Z,0.00
2018-07-22T02:56:27.735Z,0.00
2018-07-22T02:57:27.713Z,0.00
2018-07-22T02:58:27.654Z,0.00
2018-07-22T02:59:27.638Z,0.00
2018-07-22T03:00:27.620Z,0.00
2018-07-22T03:01:27.583Z,0.00
2018-07-22T03:02:27.556Z,4.00
2018-07-22T03:03:27.585Z,4.00
2018-07-22T03:04:27.540Z,0.00
2018-07-22T03:05:27.479Z,0.00
2018-07-22T03:06:27.487Z,4.00
2018-07-22T03:07:27.458Z,4.00
2018-07-22T03:08:27.423Z,0.00
2018-07-22T03:09:27.394Z,4.00
2018-07-22T03:10:27.394Z,4.00
2018-07-22T03:11:27.335Z,4.00
2018-07-22T03:12:27.315Z,4.00
2018-07-22T03:13:27.314Z,8.00
2018-07-22T03:14:27.271Z,8.00
2018-07-22T03:15:27.244Z,4.00
2018-07-22T03:16:27.221Z,8.00
2018-07-22T03:17:27.269Z,8.00
2018-07-22T03:18:27.177Z,8.00
2018-07-22T03:19:27.172Z,12.00
2018-07-22T03:20:27.144Z,12.00
2018-07-22T03:21:27.106Z,16.00
2018-07-22T03:22:27.113Z,16.00
2018-07-22T03:23:27.055Z,16.00
2018-07-22T03:24:27.052Z,20.00
2018-07-22T03:25:27.016Z,24.00
2018-07-22T03:26:27.015Z,24.00
2018-07-22T03:27:26.996Z,24.00
2018-07-22T03:28:26.942Z,28.00
2018-07-22T03:29:26.921Z,32.00
2018-07-22T03:30:26.903Z,36.00
2018-07-22T03:31:26.896Z,36.00
2018-07-22T03:32:26.850Z,40.00
2018-07-22T03:33:26.831Z,40.00
2018-07-22T03:34:26.801Z,44.00
2018-07-22T03:35:26.773Z,52.00
2018-07-22T03:36:26.749Z,52.00
2018-07-22T03:37:26.744Z,56.00
2018-07-22T03:38:26.710Z,60.00
2018-07-22T03:39:26.815Z,68.00
2018-07-22T03:40:26.685Z,72.00
2018-07-22T03:41:26.650Z,72.00
2018-07-22T03:42:26.621Z,76.00
2018-07-22T03:43:26.575Z,84.00
2018-07-22T03:44:26.557Z,88.00
2018-07-22T03:45:26.540Z,92.00
2018-07-22T03:46:26.550Z,100.00
2018-07-22T03:47:26.537Z,104.00
2018-07-22T03:48:26.464Z,112.00
2018-07-22T03:49:26.443Z,116.00
2018-07-22T03:50:26.441Z,124.00
2018-07-22T03:51:26.397Z,128.00
2018-07-22T03:52:26.372Z,132.00
2018-07-22T03:53:26.357Z,144.00
2018-07-22T03:54:26.319Z,148.00
2018-07-22T03:55:26.301Z,156.00
2018-07-22T03:56:26.278Z,164.00
2018-07-22T03:57:26.264Z,168.00
2018-07-22T03:58:26.239Z,176.00
2018-07-22T03:59:26.201Z,188.00
2018-07-22T04:00:26.195Z,192.00
2018-07-22T04:01:26.160Z,200.00
2018-07-22T04:02:26.141Z,208.00
2018-07-22T04:03:26.139Z,216.00
2018-07-22T04:04:26.099Z,224.00
2018-07-22T04:05:26.066Z,232.00
2018-07-22T04:06:26.051Z,244.00
2018-07-22T04:07:26.068Z,248.00
2018-07-22T04:08:26.000Z,260.00
2018-07-22T04:09:25.973Z,272.00
2018-07-22T04:10:25.948Z,276.00
2018-07-22T04:11:25.922Z,284.00
2018-07-22T04:12:25.911Z,300.00
2018-07-22T04:13:25.884Z,308.00
2018-07-22T04:14:25.848Z,316.00
2018-07-22T04:15:25.836Z,328.00
2018-07-22T04:16:25.825Z,340.00
2018-07-22T04:17:25.805Z,348.00
2018-07-22T04:18:25.757Z,360.00
2018-07-22T04:19:25.737Z,372.00
2018-07-22T04:20:25.728Z,384.00
2018-07-22T04:21:25.734Z,396.00
2018-07-22T04:22:25.662Z,408.00
2018-07-22T04:23:25.641Z,420.00
2018-07-22T04:24:25.657Z,432.00
2018-07-22T04:25:25.593Z,440.00
2018-07-22T04:26:25.572Z,452.00
2018-07-22T04:27:25.548Z,468.00
2018-07-22T04:28:25.525Z,476.00
2018-07-22T04:29:25.494Z,488.00
2018-07-22T04:30:25.488Z,500.00
2018-07-22T04:31:25.456Z,512.00
2018-07-22T04:32:25.436Z,520.00
2018-07-22T04:33:25.420Z,532.00
2018-07-22T04:34:27.051Z,544.00
2018-07-22T04:35:25.363Z,560.00
2018-07-22T04:36:25.336Z,572.00
2018-07-22T04:37:25.307Z,580.00
2018-07-22T04:38:25.287Z,588.00
2018-07-22T04:39:25.276Z,600.00
2018-07-22T04:40:25.257Z,608.00
2018-07-22T04:41:25.233Z,616.00
2018-07-22T04:42:25.191Z,620.00
2018-07-22T04:43:25.174Z,628.00
2018-07-22T04:44:25.145Z,636.00
2018-07-22T04:45:25.143Z,644.00
2018-07-22T04:46:25.087Z,660.00
2018-07-22T04:47:25.076Z,676.00
2018-07-22T04:48:25.055Z,692.00
2018-07-22T04:49:25.015Z,700.00
2018-07-22T04:50:25.019Z,724.00
2018-07-22T04:51:24.996Z,752.00
2018-07-22T04:52:25.005Z,772.00
2018-07-22T04:53:24.991Z,780.00
2018-07-22T04:54:24.942Z,796.00
2018-07-22T04:55:24.880Z,812.00
2018-07-22T04:56:24.847Z,824.00
2018-07-22T04:57:24.843Z,836.00
2018-07-22T04:58:24.809Z,844.00
2018-07-22T04:59:24.799Z,856.00
2018-07-22T05:00:24.773Z,864.00
2018-07-22T05:01:24.765Z,876.00
2018-07-22T05:02:24.713Z,884.00
2018-07-22T05:03:24.689Z,892.00
2018-07-22T05:04:24.693Z,900.00
2018-07-22T05:05:24.641Z,912.00
2018-07-22T05:06:24.623Z,924.00
2018-07-22T05:07:24.607Z,928.00
2018-07-22T05:08:24.569Z,936.00
2018-07-22T05:09:24.554Z,944.00
2018-07-22T05:10:24.541Z,956.00
2018-07-22T05:11:24.503Z,964.00
2018-07-22T05:12:25.067Z,972.00
2018-07-22T05:13:24.466Z,984.00
2018-07-22T05:14:24.466Z,1004.00
2018-07-22T05:15:24.398Z,1016.00
2018-07-22T05:16:24.394Z,1032.00
2018-07-22T05:17:24.372Z,1040.00
2018-07-22T05:18:24.333Z,1052.00
2018-07-22T05:19:24.310Z,1064.00
2018-07-22T05:20:24.297Z,1076.00
2018-07-22T05:21:24.286Z,1084.00
2018-07-22T05:22:24.250Z,1092.00
2018-07-22T05:23:24.233Z,1108.00
2018-07-22T05:24:24.207Z,1120.00
2018-07-22T05:25:24.170Z,1124.00
2018-07-22T05:26:24.154Z,1136.00
2018-07-22T05:27:24.128Z,1140.00
2018-07-22T05:28:24.177Z,1148.00
2018-07-22T05:29:24.084Z,1164.00
2018-07-22T05:30:24.075Z,1172.00
2018-07-22T05:31:24.209Z,1184.00
2018-07-22T05:32:24.009Z,1196.00
2018-07-22T05:33:23.983Z,1208.00
2018-07-22T05:34:23.972Z,1220.00
2018-07-22T05:35:23.928Z,1232.00
2018-07-22T05:36:23.909Z,1240.00
2018-07-22T05:37:23.914Z,1248.00
2018-07-22T05:38:23.870Z,1256.00
2018-07-22T05:39:23.840Z,1272.00
2018-07-22T05:40:23.839Z,1284.00
2018-07-22T05:41:23.790Z,1292.00
2018-07-22T05:42:23.791Z,1308.00
2018-07-22T05:43:23.752Z,1312.00
2018-07-22T05:44:23.735Z,1324.00
2018-07-22T05:45:23.736Z,1336.00
2018-07-22T05:46:23.688Z,1344.00
2018-07-22T05:47:23.667Z,1352.00
2018-07-22T05:48:23.639Z,1364.00
2018-07-22T05:49:23.615Z,1368.00
2018-07-22T05:50:23.592Z,1376.00
2018-07-22T05:51:23.552Z,1392.00
2018-07-22T05:52:23.529Z,1396.00
2018-07-22T05:53:23.515Z,1400.00
2018-07-22T05:54:23.507Z,1412.00
2018-07-22T05:55:23.479Z,1420.00
2018-07-22T05:56:23.442Z,1436.00
2018-07-22T05:57:23.422Z,1440.00
2018-07-22T05:58:23.396Z,1444.00
2018-07-22T05:59:23.362Z,1456.00
2018-07-22T06:00:23.345Z,1464.00
2018-07-22T06:01:23.323Z,1468.00
2018-07-22T06:02:23.297Z,1480.00
2018-07-22T06:03:23.395Z,1484.00
2018-07-22T06:04:23.290Z,1500.00
2018-07-22T06:05:23.224Z,1512.00
2018-07-22T06:06:23.204Z,1524.00
2018-07-22T06:07:23.200Z,1528.00
2018-07-22T06:08:23.151Z,1540.00
2018-07-22T06:09:23.136Z,1560.00
2018-07-22T06:10:23.115Z,1568.00
2018-07-22T06:11:23.084Z,1564.00
2018-07-22T06:12:23.060Z,1576.00
2018-07-22T06:13:23.068Z,1588.00
2018-07-22T06:14:23.022Z,1604.00
2018-07-22T06:15:22.992Z,1608.00
2018-07-22T06:16:22.972Z,1608.00
2018-07-22T06:17:22.963Z,1612.00
2018-07-22T06:18:22.927Z,1632.00
2018-07-22T06:19:22.894Z,1640.00
2018-07-22T06:20:22.875Z,1652.00
2018-07-22T06:21:22.845Z,1652.00
2018-07-22T06:22:22.827Z,1664.00
2018-07-22T06:23:22.870Z,1656.00
2018-07-22T06:24:22.817Z,1672.00
2018-07-22T06:25:22.759Z,1680.00
2018-07-22T06:26:22.739Z,1688.00
2018-07-22T06:27:22.731Z,1696.00
2018-07-22T06:28:22.702Z,1704.00
2018-07-22T06:29:22.669Z,1716.00
2018-07-22T06:30:22.651Z,1716.00
2018-07-22T06:31:22.622Z,1720.00
2018-07-22T06:32:22.621Z,1720.00
2018-07-22T06:33:22.609Z,1724.00
2018-07-22T06:34:22.548Z,1708.00
2018-07-22T06:35:22.591Z,1692.00
2018-07-22T06:36:22.536Z,1732.00
2018-07-22T06:37:22.490Z,1748.00
2018-07-22T06:38:22.457Z,1760.00
2018-07-22T06:39:22.432Z,1760.00
2018-07-22T06:40:22.425Z,1768.00
2018-07-22T06:41:22.411Z,1784.00
2018-07-22T06:42:22.356Z,1792.00
2018-07-22T06:43:22.338Z,1788.00
2018-07-22T06:44:22.347Z,1792.00
2018-07-22T06:45:22.286Z,1792.00
2018-07-22T06:46:22.259Z,1796.00
2018-07-22T06:47:22.248Z,1800.00
2018-07-22T06:48:22.217Z,1828.00
2018-07-22T06:49:22.197Z,1828.00
2018-07-22T06:50:22.184Z,1808.00
2018-07-22T06:51:22.153Z,1840.00
2018-07-22T06:52:22.176Z,1844.00
2018-07-22T06:53:22.172Z,1852.00
2018-07-22T06:54:22.111Z,1856.00
2018-07-22T06:55:22.076Z,1848.00
2018-07-22T06:56:22.033Z,1852.00
2018-07-22T06:57:22.090Z,1872.00
2018-07-22T06:58:22.010Z,1872.00
2018-07-22T06:59:21.964Z,1872.00
2018-07-22T07:00:21.986Z,1872.00
2018-07-22T07:01:21.923Z,1872.00
2018-07-22T07:02:21.894Z,1880.00
2018-07-22T07:03:21.873Z,1884.00
2018-07-22T07:04:21.875Z,1892.00
2018-07-22T07:05:21.834Z,1892.00
2018-07-22T07:06:21.802Z,1900.00
2018-07-22T07:07:21.801Z,1908.00
2018-07-22T07:08:21.760Z,1908.00
2018-07-22T07:09:21.729Z,1912.00
2018-07-22T07:10:21.704Z,1912.00
2018-07-22T07:11:21.698Z,1916.00
2018-07-22T07:12:21.682Z,1904.00
2018-07-22T07:13:21.711Z,1916.00
2018-07-22T07:14:21.613Z,1924.00
2018-07-22T07:15:21.608Z,1924.00
2018-07-22T07:16:21.568Z,1924.00
2018-07-22T07:17:21.583Z,1928.00
2018-07-22T07:18:21.532Z,1932.00
2018-07-22T07:19:21.499Z,1928.00
2018-07-22T07:20:21.474Z,1924.00
2018-07-22T07:21:21.479Z,1920.00
2018-07-22T07:22:21.432Z,1924.00
2018-07-22T07:23:21.431Z,1924.00
2018-07-22T07:24:21.382Z,1924.00
2018-07-22T07:25:21.372Z,1924.00
2018-07-22T07:26:21.338Z,1912.00
2018-07-22T07:27:21.315Z,1908.00
2018-07-22T07:28:21.299Z,1852.00
2018-07-22T07:29:21.264Z,1888.00
2018-07-22T07:30:21.258Z,1912.00
2018-07-22T07:31:21.230Z,1908.00
2018-07-22T07:32:21.208Z,1912.00
2018-07-22T07:33:21.178Z,1908.00
2018-07-22T07:34:21.220Z,1904.00
2018-07-22T07:35:21.137Z,1908.00
2018-07-22T07:36:21.150Z,1904.00
2018-07-22T07:37:21.248Z,1904.00
2018-07-22T07:38:21.055Z,1896.00
2018-07-22T07:39:21.058Z,1912.00
2018-07-22T07:40:21.027Z,1924.00
2018-07-22T07:41:20.997Z,1920.00
2018-07-22T07:42:21.033Z,1924.00
2018-07-22T07:43:20.985Z,1920.00
2018-07-22T07:44:20.932Z,1920.00
2018-07-22T07:45:20.908Z,1912.00
2018-07-22T07:46:20.903Z,1912.00
2018-07-22T07:47:20.858Z,1904.00
2018-07-22T07:48:20.892Z,1912.00
2018-07-22T07:49:20.836Z,1908.00
2018-07-22T07:50:20.859Z,1912.00
2018-07-22T07:51:20.775Z,1912.00
2018-07-22T07:52:20.765Z,1904.00
2018-07-22T07:53:20.763Z,1904.00
2018-07-22T07:54:20.709Z,1896.00
2018-07-22T07:55:20.699Z,1916.00
2018-07-22T07:56:20.683Z,1916.00
2018-07-22T07:57:20.631Z,1928.00
2018-07-22T07:58:20.614Z,1932.00
2018-07-22T07:59:20.608Z,1940.00
2018-07-22T08:00:20.595Z,1940.00
2018-07-22T08:01:20.539Z,1944.00
2018-07-22T08:02:20.550Z,1956.00
2018-07-22T08:03:20.515Z,1972.00
2018-07-22T08:04:20.479Z,1992.00
2018-07-22T08:05:20.454Z,2004.00
2018-07-22T08:06:20.464Z,1996.00
2018-07-22T08:07:20.414Z,1996.00
2018-07-22T08:08:20.384Z,2000.00
2018-07-22T08:09:20.378Z,2020.00
2018-07-22T08:10:20.377Z,2028.00
2018-07-22T08:11:20.318Z,2032.00
2018-07-22T08:12:20.301Z,2020.00
2018-07-22T08:13:20.285Z,2000.00
2018-07-22T08:14:20.280Z,1940.00
2018-07-22T08:15:20.242Z,1908.00
2018-07-22T08:16:20.236Z,1868.00
2018-07-22T08:17:20.200Z,1844.00
2018-07-22T08:18:20.164Z,1916.00
2018-07-22T08:19:20.160Z,1940.00
2018-07-22T08:20:20.140Z,1968.00
2018-07-22T08:21:20.140Z,1916.00
2018-07-22T08:22:20.077Z,1864.00
2018-07-22T08:23:20.056Z,1980.00
2018-07-22T08:24:20.044Z,1976.00
2018-07-22T08:25:20.016Z,1976.00
2018-07-22T08:26:19.989Z,1976.00
2018-07-22T08:27:19.995Z,1980.00
2018-07-22T08:28:20.038Z,1976.00
2018-07-22T08:29:19.917Z,1972.00
2018-07-22T08:30:19.910Z,1980.00
2018-07-22T08:31:19.891Z,1976.00
2018-07-22T08:32:19.862Z,1952.00
2018-07-22T08:33:19.843Z,1964.00
2018-07-22T08:34:19.812Z,1968.00
2018-07-22T08:35:19.789Z,1972.00
2018-07-22T08:36:19.764Z,1956.00
2018-07-22T08:37:19.751Z,1940.00
2018-07-22T08:38:19.735Z,1976.00
2018-07-22T08:39:19.708Z,1964.00
2018-07-22T08:40:19.707Z,1988.00
2018-07-22T08:41:19.728Z,2004.00
2018-07-22T08:42:19.634Z,2008.00
2018-07-22T08:43:19.626Z,1992.00
2018-07-22T08:44:19.640Z,1984.00
2018-07-22T08:45:19.596Z,1992.00
2018-07-22T08:46:19.553Z,1976.00
2018-07-22T08:47:19.531Z,2004.00
2018-07-22T08:48:19.536Z,2008.00
2018-07-22T08:49:19.503Z,2004.00
2018-07-22T08:50:19.465Z,2004.00
2018-07-22T08:51:19.441Z,2020.00
2018-07-22T08:52:19.430Z,1972.00
2018-07-22T08:53:19.478Z,1972.00
2018-07-22T08:54:19.374Z,1972.00
2018-07-22T08:55:19.399Z,1932.00
2018-07-22T08:56:19.392Z,1988.00
2018-07-22T08:57:19.479Z,2016.00
2018-07-22T08:58:19.369Z,2020.00
2018-07-22T08:59:19.327Z,2040.00
2018-07-22T09:00:19.399Z,2060.00
2018-07-22T09:01:19.312Z,2064.00
2018-07-22T09:02:19.228Z,2072.00
2018-07-22T09:03:19.190Z,2076.00
2018-07-22T09:04:20.255Z,2084.00
2018-07-22T09:05:19.141Z,2088.00
2018-07-22T09:06:19.143Z,2084.00
2018-07-22T09:07:19.092Z,2088.00
2018-07-22T09:08:19.267Z,2080.00
2018-07-22T09:09:19.065Z,2072.00
2018-07-22T09:10:19.040Z,2060.00
2018-07-22T09:11:19.007Z,2044.00
2018-07-22T09:12:19.043Z,2044.00
2018-07-22T09:13:19.008Z,2040.00
2018-07-22T09:14:18.957Z,2032.00
2018-07-22T09:15:18.979Z,2032.00
2018-07-22T09:16:18.909Z,2028.00
2018-07-22T09:17:18.918Z,2036.00
2018-07-22T09:18:18.889Z,2040.00
2018-07-22T09:19:18.867Z,2040.00
2018-07-22T09:20:18.823Z,2052.00
2018-07-22T09:21:18.812Z,2052.00
2018-07-22T09:22:18.787Z,2060.00
2018-07-22T09:23:18.761Z,2056.00
2018-07-22T09:24:18.748Z,2048.00
2018-07-22T09:25:18.725Z,2056.00
2018-07-22T09:26:18.714Z,2064.00
2018-07-22T09:27:18.676Z,2064.00
2018-07-22T09:28:18.661Z,2076.00
2018-07-22T09:29:18.634Z,2080.00
2018-07-22T09:30:18.630Z,2076.00
2018-07-22T09:31:18.623Z,2076.00
2018-07-22T09:32:18.601Z,2068.00
2018-07-22T09:33:19.099Z,2072.00
2018-07-22T09:34:18.562Z,2080.00
2018-07-22T09:35:18.511Z,2092.00
2018-07-22T09:36:18.528Z,2088.00
2018-07-22T09:37:18.463Z,2084.00
2018-07-22T09:38:18.447Z,2084.00
2018-07-22T09:39:18.426Z,2096.00
2018-07-22T09:40:18.403Z,2104.00
2018-07-22T09:41:18.429Z,2108.00
2018-07-22T09:42:18.406Z,2120.00
2018-07-22T09:43:18.345Z,2144.00
2018-07-22T09:44:18.324Z,2164.00
2018-07-22T09:45:18.310Z,2184.00
2018-07-22T09:46:18.289Z,2212.00
2018-07-22T09:47:18.267Z,2236.00
2018-07-22T09:48:18.251Z,2280.00
2018-07-22T09:49:18.225Z,2304.00
2018-07-22T09:50:18.233Z,2344.00
2018-07-22T09:51:18.177Z,2344.00
2018-07-22T09:52:18.160Z,2360.00
2018-07-22T09:53:18.153Z,2372.00
2018-07-22T09:54:18.228Z,2372.00
2018-07-22T09:55:18.116Z,2372.00
2018-07-22T09:56:18.087Z,2352.00
2018-07-22T09:57:18.066Z,2340.00
2018-07-22T09:58:18.026Z,2340.00
2018-07-22T09:59:18.095Z,2356.00
2018-07-22T10:00:17.989Z,2368.00
2018-07-22T10:01:17.975Z,2376.00
2018-07-22T10:02:17.964Z,2376.00
2018-07-22T10:03:17.928Z,2360.00
2018-07-22T10:04:17.905Z,2336.00
2018-07-22T10:05:17.904Z,2332.00
2018-07-22T10:06:17.882Z,2324.00
2018-07-22T10:07:17.847Z,2272.00
2018-07-22T10:08:17.830Z,2212.00
2018-07-22T10:09:17.822Z,2316.00
2018-07-22T10:10:17.811Z,2240.00
2018-07-22T10:11:17.897Z,2284.00
2018-07-22T10:12:17.749Z,2260.00
2018-07-22T10:13:17.748Z,2268.00
2018-07-22T10:14:17.794Z,2276.00
2018-07-22T10:15:17.688Z,2272.00
2018-07-22T10:16:17.679Z,2252.00
2018-07-22T10:17:17.744Z,2252.00
2018-07-22T10:18:17.643Z,2260.00
2018-07-22T10:19:17.610Z,2288.00
2018-07-22T10:20:17.601Z,2280.00
2018-07-22T10:21:17.621Z,2236.00
2018-07-22T10:22:17.551Z,2216.00
2018-07-22T10:23:17.608Z,2224.00
2018-07-22T10:24:17.527Z,2136.00
2018-07-22T10:25:17.492Z,2196.00
2018-07-22T10:26:17.473Z,2204.00
2018-07-22T10:27:17.449Z,2220.00
2018-07-22T10:28:17.438Z,2224.00
2018-07-22T10:29:17.450Z,2236.00
2018-07-22T10:30:17.382Z,2240.00
2018-07-22T10:31:17.375Z,2244.00
2018-07-22T10:32:17.375Z,2244.00
2018-07-22T10:33:17.329Z,2248.00
2018-07-22T10:34:17.317Z,2236.00
2018-07-22T10:35:17.293Z,2220.00
2018-07-22T10:36:17.296Z,2184.00
2018-07-22T10:37:17.247Z,2196.00
2018-07-22T10:38:17.244Z,2264.00
2018-07-22T10:39:17.238Z,2280.00
2018-07-22T10:40:17.202Z,2276.00
2018-07-22T10:41:17.213Z,2288.00
2018-07-22T10:42:17.182Z,2300.00
2018-07-22T10:43:17.163Z,2320.00
2018-07-22T10:44:17.113Z,2344.00
2018-07-22T10:45:17.085Z,2344.00
2018-07-22T10:46:17.130Z,2360.00
2018-07-22T10:47:17.086Z,2408.00
2018-07-22T10:48:17.055Z,2416.00
2018-07-22T10:49:17.026Z,2436.00
2018-07-22T10:50:16.996Z,2440.00
2018-07-22T10:51:16.999Z,2448.00
2018-07-22T10:52:16.949Z,2504.00
2018-07-22T10:53:16.952Z,2548.00
2018-07-22T10:54:16.929Z,2604.00
2018-07-22T10:55:17.112Z,2668.00
2018-07-22T10:56:16.872Z,2712.00
2018-07-22T10:57:16.852Z,2768.00
2018-07-22T10:58:16.842Z,2832.00
2018-07-22T10:59:16.847Z,2880.00
2018-07-22T11:00:16.793Z,2768.00
2018-07-22T11:01:16.769Z,3060.00
2018-07-22T11:02:16.797Z,3188.00
2018-07-22T11:03:16.757Z,3408.00
2018-07-22T11:04:16.716Z,3652.00
2018-07-22T11:05:16.701Z,3600.00
2018-07-22T11:06:16.701Z,3312.00
2018-07-22T11:07:16.690Z,3100.00
2018-07-22T11:08:16.632Z,3152.00
2018-07-22T11:09:16.623Z,3256.00
2018-07-22T11:10:16.619Z,3584.00
2018-07-22T11:11:16.605Z,3748.00
2018-07-22T11:12:16.578Z,3800.00
2018-07-22T11:13:16.548Z,3476.00
2018-07-22T11:14:16.578Z,3004.00
2018-07-22T11:15:16.530Z,2812.00
2018-07-22T11:16:16.494Z,2756.00
2018-07-22T11:17:16.476Z,2748.00
2018-07-22T11:18:16.470Z,2924.00
2018-07-22T11:19:16.453Z,3096.00
2018-07-22T11:20:16.411Z,3392.00
2018-07-22T11:21:16.492Z,3644.00
2018-07-22T11:22:16.400Z,4480.00
2018-07-22T11:23:16.346Z,4788.00
2018-07-22T11:24:16.336Z,4876.00
2018-07-22T11:25:16.325Z,4288.00
2018-07-22T11:26:16.336Z,4244.00
2018-07-22T11:27:16.272Z,4356.00
2018-07-22T11:28:16.265Z,4824.00
2018-07-22T11:29:16.270Z,4888.00
2018-07-22T11:30:16.227Z,5036.00
2018-07-22T11:31:16.205Z,5256.00
2018-07-22T11:32:16.183Z,5020.00
2018-07-22T11:33:16.169Z,4676.00
2018-07-22T11:34:16.213Z,5104.00
2018-07-22T11:35:16.137Z,4976.00
2018-07-22T11:36:16.118Z,4684.00
2018-07-22T11:37:16.207Z,4324.00
2018-07-22T11:38:16.088Z,4280.00
2018-07-22T11:39:16.094Z,4392.00
2018-07-22T11:40:16.036Z,4352.00
2018-07-22T11:41:16.020Z,3884.00
2018-07-22T11:42:16.016Z,3660.00
2018-07-22T11:43:15.992Z,3460.00
2018-07-22T11:44:15.970Z,3168.00
2018-07-22T11:45:15.953Z,2724.00
2018-07-22T11:46:15.941Z,2700.00
2018-07-22T11:47:15.907Z,2724.00
2018-07-22T11:48:15.894Z,2764.00
2018-07-22T11:49:15.877Z,2916.00
2018-07-22T11:50:15.922Z,3144.00
2018-07-22T11:51:16.649Z,3496.00
2018-07-22T11:52:15.812Z,3848.00
2018-07-22T11:53:15.828Z,4196.00
2018-07-22T11:54:15.808Z,4320.00
2018-07-22T11:55:15.764Z,4224.00
2018-07-22T11:56:15.752Z,4136.00
2018-07-22T11:57:15.730Z,4000.00
2018-07-22T11:58:15.716Z,4088.00
2018-07-22T11:59:15.713Z,4148.00
2018-07-22T12:00:15.720Z,4112.00
2018-07-22T12:01:15.704Z,4012.00
2018-07-22T12:02:15.658Z,3468.00
2018-07-22T12:03:15.620Z,3068.00
2018-07-22T12:04:15.600Z,2980.00
2018-07-22T12:05:15.585Z,3016.00
2018-07-22T12:06:15.588Z,3176.00
2018-07-22T12:07:15.586Z,3420.00
2018-07-22T12:08:15.541Z,3736.00
2018-07-22T12:09:15.515Z,3940.00
2018-07-22T12:10:15.520Z,4088.00
2018-07-22T12:11:15.500Z,4324.00
2018-07-22T12:12:15.533Z,4920.00
2018-07-22T12:13:15.474Z,5004.00
2018-07-22T12:14:15.441Z,4860.00
2018-07-22T12:15:15.415Z,4732.00
2018-07-22T12:16:15.379Z,4828.00
2018-07-22T12:17:15.367Z,4784.00
2018-07-22T12:18:15.383Z,4140.00
2018-07-22T12:19:15.354Z,4416.00
2018-07-22T12:20:15.356Z,5036.00
2018-07-22T12:21:15.320Z,4824.00
2018-07-22T12:22:15.279Z,4892.00
2018-07-22T12:23:15.271Z,4792.00
2018-07-22T12:24:15.280Z,4004.00
2018-07-22T12:25:15.234Z,3352.00
2018-07-22T12:26:15.222Z,3120.00
2018-07-22T12:27:15.193Z,3048.00
2018-07-22T12:28:15.280Z,3424.00